Terminal Aerodrome Forecast
Issued by NWS

Home | Current Version | Previous Version | Text Only | Print | Product List | Glossary On
Versions: 1 2 3 4 5 6 7 8 9 10 11 12
684
FTUS42 TJSJ 112333
TAFJBQ
TAF
TJBQ 112333Z 1200/1224 09008KT P6SM FEW025 SCT050
     FM120300 10004KT P6SM FEW050
     FM121400 08014KT P6SM FEW025 SCT050
      AMD NOT SKED 1202/1211=

USA.gov is the U.S. government's official web portal to all federal, state and local government web resources and services.